sensor_id;sensor_type;location;lat;lon;timestamp;P1;durP1;ratioP1;P2;durP2;ratioP2
17504;SDS011;8870;50.950;11.762;2022-12-10T00:05:01;42.20;;;27.98;;
17504;SDS011;8870;50.950;11.762;2022-12-10T00:10:32;40.72;;;28.20;;
17504;SDS011;8870;50.950;11.762;2022-12-10T00:15:52;42.95;;;28.52;;
17504;SDS011;8870;50.950;11.762;2022-12-10T00:21:25;42.55;;;28.77;;
17504;SDS011;8870;50.950;11.762;2022-12-10T00:26:45;44.25;;;28.70;;
17504;SDS011;8870;50.950;11.762;2022-12-10T00:32:18;55.22;;;30.08;;
17504;SDS011;8870;50.950;11.762;2022-12-10T00:37:37;50.65;;;30.70;;
17504;SDS011;8870;50.950;11.762;2022-12-10T00:43:08;61.60;;;30.35;;
17504;SDS011;8870;50.950;11.762;2022-12-10T00:48:28;63.75;;;30.63;;
17504;SDS011;8870;50.950;11.762;2022-12-10T00:54:01;85.07;;;31.85;;
17504;SDS011;8870;50.950;11.762;2022-12-10T00:59:20;65.88;;;31.40;;
17504;SDS011;8870;50.950;11.762;2022-12-10T01:04:54;72.53;;;33.65;;
17504;SDS011;8870;50.950;11.762;2022-12-10T01:10:13;67.97;;;31.90;;
17504;SDS011;8870;50.950;11.762;2022-12-10T01:15:45;210.48;;;31.95;;
17504;SDS011;8870;50.950;11.762;2022-12-10T01:21:06;88.90;;;31.67;;
17504;SDS011;8870;50.950;11.762;2022-12-10T01:26:39;83.43;;;31.08;;
17504;SDS011;8870;50.950;11.762;2022-12-10T01:31:57;98.50;;;33.20;;
17504;SDS011;8870;50.950;11.762;2022-12-10T01:37:31;78.50;;;29.90;;
17504;SDS011;8870;50.950;11.762;2022-12-10T01:42:50;67.40;;;30.98;;
17504;SDS011;8870;50.950;11.762;2022-12-10T01:48:21;70.60;;;33.58;;
17504;SDS011;8870;50.950;11.762;2022-12-10T01:53:42;67.80;;;30.80;;
17504;SDS011;8870;50.950;11.762;2022-12-10T01:59:15;62.60;;;31.65;;
17504;SDS011;8870;50.950;11.762;2022-12-10T02:04:41;57.78;;;31.75;;
17504;SDS011;8870;50.950;11.762;2022-12-10T02:10:26;58.08;;;32.35;;
17504;SDS011;8870;50.950;11.762;2022-12-10T02:15:59;63.30;;;33.22;;
17504;SDS011;8870;50.950;11.762;2022-12-10T02:21:36;61.05;;;34.03;;
17504;SDS011;8870;50.950;11.762;2022-12-10T02:27:03;58.93;;;32.77;;
17504;SDS011;8870;50.950;11.762;2022-12-10T02:32:42;55.33;;;32.20;;
17504;SDS011;8870;50.950;11.762;2022-12-10T02:38:05;58.25;;;32.42;;
17504;SDS011;8870;50.950;11.762;2022-12-10T02:43:41;56.63;;;32.17;;
17504;SDS011;8870;50.950;11.762;2022-12-10T02:49:06;58.90;;;32.05;;
17504;SDS011;8870;50.950;11.762;2022-12-10T03:00:00;55.38;;;31.58;;
17504;SDS011;8870;50.950;11.762;2022-12-10T03:05:48;49.85;;;31.27;;
17504;SDS011;8870;50.950;11.762;2022-12-10T03:11:13;54.83;;;30.63;;
17504;SDS011;8870;50.950;11.762;2022-12-10T03:16:46;53.72;;;28.45;;
17504;SDS011;8870;50.950;11.762;2022-12-10T03:22:12;46.17;;;27.38;;
17504;SDS011;8870;50.950;11.762;2022-12-10T03:27:47;41.38;;;25.70;;
17504;SDS011;8870;50.950;11.762;2022-12-10T03:33:08;41.85;;;27.08;;
17504;SDS011;8870;50.950;11.762;2022-12-10T03:44:07;37.53;;;24.08;;
17504;SDS011;8870;50.950;11.762;2022-12-10T03:49:40;36.85;;;24.48;;
17504;SDS011;8870;50.950;11.762;2022-12-10T03:55:02;33.47;;;22.92;;
17504;SDS011;8870;50.950;11.762;2022-12-10T04:00:33;35.03;;;23.73;;
17504;SDS011;8870;50.950;11.762;2022-12-10T04:05:51;31.80;;;22.55;;
17504;SDS011;8870;50.950;11.762;2022-12-10T04:11:25;28.35;;;21.23;;
17504;SDS011;8870;50.950;11.762;2022-12-10T04:16:44;31.95;;;22.17;;
17504;SDS011;8870;50.950;11.762;2022-12-10T04:22:15;27.45;;;20.73;;
17504;SDS011;8870;50.950;11.762;2022-12-10T04:27:48;24.45;;;18.77;;
17504;SDS011;8870;50.950;11.762;2022-12-10T04:33:20;25.45;;;20.15;;
17504;SDS011;8870;50.950;11.762;2022-12-10T04:38:39;26.02;;;19.58;;
17504;SDS011;8870;50.950;11.762;2022-12-10T04:44:12;25.00;;;19.45;;
17504;SDS011;8870;50.950;11.762;2022-12-10T04:49:34;30.40;;;21.25;;
17504;SDS011;8870;50.950;11.762;2022-12-10T04:55:08;30.75;;;22.48;;
17504;SDS011;8870;50.950;11.762;2022-12-10T05:00:28;36.28;;;24.30;;
17504;SDS011;8870;50.950;11.762;2022-12-10T05:06:00;34.00;;;24.05;;
17504;SDS011;8870;50.950;11.762;2022-12-10T05:11:27;33.97;;;23.10;;
17504;SDS011;8870;50.950;11.762;2022-12-10T05:17:02;30.65;;;21.70;;
17504;SDS011;8870;50.950;11.762;2022-12-10T05:22:21;31.02;;;21.42;;
17504;SDS011;8870;50.950;11.762;2022-12-10T05:28:05;30.80;;;21.67;;
17504;SDS011;8870;50.950;11.762;2022-12-10T05:33:26;31.85;;;21.90;;
17504;SDS011;8870;50.950;11.762;2022-12-10T05:38:57;30.50;;;22.15;;
17504;SDS011;8870;50.950;11.762;2022-12-10T05:44:17;31.88;;;22.17;;
17504;SDS011;8870;50.950;11.762;2022-12-10T05:49:51;37.28;;;24.25;;
17504;SDS011;8870;50.950;11.762;2022-12-10T05:55:11;37.13;;;24.77;;
17504;SDS011;8870;50.950;11.762;2022-12-10T06:00:42;37.42;;;24.67;;
17504;SDS011;8870;50.950;11.762;2022-12-10T06:06:03;38.92;;;24.70;;
17504;SDS011;8870;50.950;11.762;2022-12-10T06:11:35;43.20;;;27.20;;
17504;SDS011;8870;50.950;11.762;2022-12-10T06:16:54;40.30;;;25.92;;
17504;SDS011;8870;50.950;11.762;2022-12-10T06:22:27;41.53;;;25.02;;
17504;SDS011;8870;50.950;11.762;2022-12-10T06:27:46;42.58;;;27.02;;
17504;SDS011;8870;50.950;11.762;2022-12-10T06:33:17;40.75;;;26.10;;
17504;SDS011;8870;50.950;11.762;2022-12-10T06:38:42;42.55;;;26.67;;
17504;SDS011;8870;50.950;11.762;2022-12-10T06:44:15;40.33;;;26.30;;
17504;SDS011;8870;50.950;11.762;2022-12-10T06:49:34;40.28;;;26.58;;
17504;SDS011;8870;50.950;11.762;2022-12-10T06:55:09;39.95;;;25.50;;
17504;SDS011;8870;50.950;11.762;2022-12-10T07:00:27;36.42;;;25.02;;
17504;SDS011;8870;50.950;11.762;2022-12-10T07:05:59;38.03;;;24.58;;
17504;SDS011;8870;50.950;11.762;2022-12-10T07:11:21;33.10;;;23.45;;
17504;SDS011;8870;50.950;11.762;2022-12-10T07:16:56;34.95;;;23.58;;
17504;SDS011;8870;50.950;11.762;2022-12-10T07:22:14;33.67;;;24.10;;
17504;SDS011;8870;50.950;11.762;2022-12-10T07:27:47;28.30;;;21.75;;
17504;SDS011;8870;50.950;11.762;2022-12-10T07:33:06;25.05;;;18.90;;
17504;SDS011;8870;50.950;11.762;2022-12-10T07:38:38;26.02;;;19.13;;
17504;SDS011;8870;50.950;11.762;2022-12-10T07:44:00;23.55;;;18.95;;
17504;SDS011;8870;50.950;11.762;2022-12-10T07:49:31;21.15;;;17.33;;
17504;SDS011;8870;50.950;11.762;2022-12-10T07:54:50;17.45;;;14.77;;
17504;SDS011;8870;50.950;11.762;2022-12-10T08:00:24;17.60;;;14.25;;
17504;SDS011;8870;50.950;11.762;2022-12-10T08:05:43;20.95;;;16.70;;
17504;SDS011;8870;50.950;11.762;2022-12-10T08:11:15;20.15;;;15.85;;
17504;SDS011;8870;50.950;11.762;2022-12-10T08:16:37;19.88;;;16.23;;
17504;SDS011;8870;50.950;11.762;2022-12-10T08:22:08;19.02;;;15.70;;
17504;SDS011;8870;50.950;11.762;2022-12-10T08:27:26;18.90;;;16.05;;
17504;SDS011;8870;50.950;11.762;2022-12-10T08:33:01;20.25;;;15.90;;
17504;SDS011;8870;50.950;11.762;2022-12-10T08:38:23;21.42;;;16.90;;
17504;SDS011;8870;50.950;11.762;2022-12-10T08:43:54;20.58;;;16.40;;
17504;SDS011;8870;50.950;11.762;2022-12-10T08:49:16;17.77;;;15.02;;
17504;SDS011;8870;50.950;11.762;2022-12-10T08:54:47;18.33;;;14.98;;
17504;SDS011;8870;50.950;11.762;2022-12-10T09:00:06;18.73;;;15.75;;
17504;SDS011;8870;50.950;11.762;2022-12-10T09:11:07;27.90;;;21.15;;
17504;SDS011;8870;50.950;11.762;2022-12-10T09:27:33;17.45;;;14.55;;
17504;SDS011;8870;50.950;11.762;2022-12-10T09:43:57;13.45;;;10.90;;
17504;SDS011;8870;50.950;11.762;2022-12-10T09:49:24;15.40;;;12.38;;
17504;SDS011;8870;50.950;11.762;2022-12-10T09:55:11;15.40;;;13.30;;
17504;SDS011;8870;50.950;11.762;2022-12-10T10:00:34;16.75;;;14.68;;
17504;SDS011;8870;50.950;11.762;2022-12-10T10:06:08;19.17;;;15.93;;
17504;SDS011;8870;50.950;11.762;2022-12-10T10:11:33;25.73;;;19.65;;
17504;SDS011;8870;50.950;11.762;2022-12-10T10:17:07;23.25;;;18.27;;
17504;SDS011;8870;50.950;11.762;2022-12-10T10:22:35;23.13;;;18.45;;
17504;SDS011;8870;50.950;11.762;2022-12-10T10:28:12;17.98;;;15.15;;
17504;SDS011;8870;50.950;11.762;2022-12-10T10:33:35;13.73;;;12.23;;
17504;SDS011;8870;50.950;11.762;2022-12-10T10:39:24;18.58;;;16.58;;
17504;SDS011;8870;50.950;11.762;2022-12-10T10:44:48;18.58;;;16.10;;
17504;SDS011;8870;50.950;11.762;2022-12-10T10:50:23;19.45;;;16.75;;
17504;SDS011;8870;50.950;11.762;2022-12-10T10:55:42;19.63;;;17.10;;
17504;SDS011;8870;50.950;11.762;2022-12-10T11:01:16;21.40;;;17.20;;
17504;SDS011;8870;50.950;11.762;2022-12-10T11:06:35;16.60;;;14.80;;
17504;SDS011;8870;50.950;11.762;2022-12-10T11:12:21;19.17;;;16.20;;
17504;SDS011;8870;50.950;11.762;2022-12-10T11:17:49;22.90;;;18.30;;
17504;SDS011;8870;50.950;11.762;2022-12-10T11:23:22;22.17;;;17.83;;
17504;SDS011;8870;50.950;11.762;2022-12-10T11:28:49;27.77;;;21.33;;
17504;SDS011;8870;50.950;11.762;2022-12-10T11:34:34;28.35;;;21.30;;
17504;SDS011;8870;50.950;11.762;2022-12-10T11:40:05;25.65;;;20.10;;
17504;SDS011;8870;50.950;11.762;2022-12-10T11:51:32;36.65;;;24.67;;
17504;SDS011;8870;50.950;11.762;2022-12-10T11:56:57;31.20;;;22.08;;
17504;SDS011;8870;50.950;11.762;2022-12-10T12:02:49;27.10;;;20.17;;
17504;SDS011;8870;50.950;11.762;2022-12-10T12:08:35;27.85;;;20.65;;
17504;SDS011;8870;50.950;11.762;2022-12-10T12:14:07;26.38;;;19.50;;
17504;SDS011;8870;50.950;11.762;2022-12-10T12:19:46;20.38;;;16.08;;
17504;SDS011;8870;50.950;11.762;2022-12-10T12:25:15;17.00;;;13.75;;
17504;SDS011;8870;50.950;11.762;2022-12-10T12:36:18;15.77;;;12.88;;
17504;SDS011;8870;50.950;11.762;2022-12-10T12:41:57;14.90;;;12.80;;
17504;SDS011;8870;50.950;11.762;2022-12-10T12:47:29;14.18;;;12.13;;
17504;SDS011;8870;50.950;11.762;2022-12-10T12:53:17;11.90;;;10.70;;
17504;SDS011;8870;50.950;11.762;2022-12-10T12:58:47;13.65;;;11.93;;
17504;SDS011;8870;50.950;11.762;2022-12-10T13:04:27;12.00;;;10.65;;
17504;SDS011;8870;50.950;11.762;2022-12-10T13:15:46;12.07;;;10.77;;
17504;SDS011;8870;50.950;11.762;2022-12-10T13:27:04;11.23;;;10.02;;
17504;SDS011;8870;50.950;11.762;2022-12-10T13:32:51;13.05;;;11.45;;
17504;SDS011;8870;50.950;11.762;2022-12-10T13:38:20;11.38;;;10.18;;
17504;SDS011;8870;50.950;11.762;2022-12-10T13:43:56;12.15;;;10.80;;
17504;SDS011;8870;50.950;11.762;2022-12-10T13:49:32;13.43;;;11.90;;
17504;SDS011;8870;50.950;11.762;2022-12-10T14:00:47;15.63;;;13.23;;
17504;SDS011;8870;50.950;11.762;2022-12-10T14:06:27;17.65;;;14.63;;
17504;SDS011;8870;50.950;11.762;2022-12-10T14:11:53;14.43;;;12.30;;
17504;SDS011;8870;50.950;11.762;2022-12-10T14:17:30;17.33;;;14.23;;
17504;SDS011;8870;50.950;11.762;2022-12-10T14:22:54;19.88;;;15.60;;
17504;SDS011;8870;50.950;11.762;2022-12-10T14:28:39;19.23;;;15.85;;
17504;SDS011;8870;50.950;11.762;2022-12-10T14:34:00;21.95;;;17.48;;
17504;SDS011;8870;50.950;11.762;2022-12-10T14:39:38;21.73;;;17.00;;
17504;SDS011;8870;50.950;11.762;2022-12-10T14:44:58;21.30;;;16.17;;
17504;SDS011;8870;50.950;11.762;2022-12-10T14:50:32;19.30;;;15.05;;
17504;SDS011;8870;50.950;11.762;2022-12-10T14:55:53;17.48;;;14.15;;
17504;SDS011;8870;50.950;11.762;2022-12-10T15:01:28;18.05;;;14.48;;
17504;SDS011;8870;50.950;11.762;2022-12-10T15:06:49;19.33;;;14.80;;
17504;SDS011;8870;50.950;11.762;2022-12-10T15:12:27;23.20;;;17.20;;
17504;SDS011;8870;50.950;11.762;2022-12-10T15:17:58;21.58;;;16.40;;
17504;SDS011;8870;50.950;11.762;2022-12-10T15:23:34;15.98;;;13.50;;
17504;SDS011;8870;50.950;11.762;2022-12-10T15:35:04;19.73;;;15.40;;
17504;SDS011;8870;50.950;11.762;2022-12-10T15:40:26;20.77;;;16.50;;
17504;SDS011;8870;50.950;11.762;2022-12-10T15:46:04;18.92;;;15.48;;
17504;SDS011;8870;50.950;11.762;2022-12-10T15:51:22;21.33;;;16.55;;
17504;SDS011;8870;50.950;11.762;2022-12-10T15:56:54;18.45;;;15.30;;
17504;SDS011;8870;50.950;11.762;2022-12-10T16:02:19;18.85;;;15.27;;
17504;SDS011;8870;50.950;11.762;2022-12-10T16:08:00;19.30;;;15.73;;
17504;SDS011;8870;50.950;11.762;2022-12-10T16:13:23;22.17;;;16.63;;
17504;SDS011;8870;50.950;11.762;2022-12-10T16:19:04;21.00;;;16.38;;
17504;SDS011;8870;50.950;11.762;2022-12-10T16:24:27;21.08;;;16.60;;
17504;SDS011;8870;50.950;11.762;2022-12-10T16:29:59;19.63;;;16.10;;
17504;SDS011;8870;50.950;11.762;2022-12-10T16:35:20;20.52;;;16.70;;
17504;SDS011;8870;50.950;11.762;2022-12-10T16:40:52;21.13;;;16.98;;
17504;SDS011;8870;50.950;11.762;2022-12-10T16:46:11;23.38;;;17.58;;
17504;SDS011;8870;50.950;11.762;2022-12-10T16:51:45;23.27;;;17.45;;
17504;SDS011;8870;50.950;11.762;2022-12-10T16:57:04;22.85;;;17.25;;
17504;SDS011;8870;50.950;11.762;2022-12-10T17:02:38;22.90;;;17.83;;
17504;SDS011;8870;50.950;11.762;2022-12-10T17:07:59;22.90;;;17.67;;
17504;SDS011;8870;50.950;11.762;2022-12-10T17:13:31;21.50;;;17.13;;
17504;SDS011;8870;50.950;11.762;2022-12-10T17:18:50;22.73;;;17.80;;
17504;SDS011;8870;50.950;11.762;2022-12-10T17:24:24;19.08;;;15.45;;
17504;SDS011;8870;50.950;11.762;2022-12-10T17:29:43;21.10;;;16.40;;
17504;SDS011;8870;50.950;11.762;2022-12-10T17:35:18;21.05;;;16.55;;
17504;SDS011;8870;50.950;11.762;2022-12-10T17:40:39;22.40;;;17.35;;
17504;SDS011;8870;50.950;11.762;2022-12-10T17:46:11;21.83;;;17.48;;
17504;SDS011;8870;50.950;11.762;2022-12-10T17:51:29;19.17;;;15.35;;
17504;SDS011;8870;50.950;11.762;2022-12-10T17:57:07;19.95;;;16.10;;
17504;SDS011;8870;50.950;11.762;2022-12-10T18:02:29;31.00;;;21.08;;
17504;SDS011;8870;50.950;11.762;2022-12-10T18:08:00;22.42;;;16.42;;
17504;SDS011;8870;50.950;11.762;2022-12-10T18:13:21;18.50;;;15.35;;
17504;SDS011;8870;50.950;11.762;2022-12-10T18:18:52;21.30;;;15.50;;
17504;SDS011;8870;50.950;11.762;2022-12-10T18:24:13;19.42;;;14.98;;
17504;SDS011;8870;50.950;11.762;2022-12-10T18:29:47;21.30;;;15.43;;
17504;SDS011;8870;50.950;11.762;2022-12-10T18:35:07;20.42;;;15.23;;
17504;SDS011;8870;50.950;11.762;2022-12-10T18:40:39;19.92;;;15.55;;
17504;SDS011;8870;50.950;11.762;2022-12-10T18:46:01;20.88;;;16.00;;
17504;SDS011;8870;50.950;11.762;2022-12-10T18:51:32;20.27;;;15.63;;
17504;SDS011;8870;50.950;11.762;2022-12-10T18:56:50;22.25;;;17.35;;
17504;SDS011;8870;50.950;11.762;2022-12-10T19:02:44;24.80;;;18.80;;
17504;SDS011;8870;50.950;11.762;2022-12-10T19:08:02;24.05;;;18.00;;
17504;SDS011;8870;50.950;11.762;2022-12-10T19:13:35;25.90;;;18.63;;
17504;SDS011;8870;50.950;11.762;2022-12-10T19:18:56;27.20;;;19.73;;
17504;SDS011;8870;50.950;11.762;2022-12-10T19:24:28;29.00;;;20.65;;
17504;SDS011;8870;50.950;11.762;2022-12-10T19:29:46;31.30;;;21.67;;
17504;SDS011;8870;50.950;11.762;2022-12-10T19:35:22;35.15;;;23.65;;
17504;SDS011;8870;50.950;11.762;2022-12-10T19:40:42;32.05;;;23.20;;
17504;SDS011;8870;50.950;11.762;2022-12-10T19:46:14;33.97;;;23.35;;
17504;SDS011;8870;50.950;11.762;2022-12-10T19:51:37;35.33;;;25.50;;
17504;SDS011;8870;50.950;11.762;2022-12-10T19:57:08;25.67;;;18.85;;
17504;SDS011;8870;50.950;11.762;2022-12-10T20:02:29;24.40;;;18.98;;
17504;SDS011;8870;50.950;11.762;2022-12-10T20:08:04;22.67;;;18.10;;
17504;SDS011;8870;50.950;11.762;2022-12-10T20:13:22;21.20;;;17.20;;
17504;SDS011;8870;50.950;11.762;2022-12-10T20:18:53;22.30;;;17.88;;
17504;SDS011;8870;50.950;11.762;2022-12-10T20:24:15;22.00;;;17.65;;
17504;SDS011;8870;50.950;11.762;2022-12-10T20:29:46;24.05;;;19.00;;
17504;SDS011;8870;50.950;11.762;2022-12-10T20:35:14;22.88;;;17.98;;
17504;SDS011;8870;50.950;11.762;2022-12-10T20:40:50;23.02;;;18.58;;
17504;SDS011;8870;50.950;11.762;2022-12-10T20:46:11;23.92;;;19.02;;
17504;SDS011;8870;50.950;11.762;2022-12-10T20:51:44;24.30;;;18.98;;
17504;SDS011;8870;50.950;11.762;2022-12-10T20:57:05;23.70;;;18.98;;
17504;SDS011;8870;50.950;11.762;2022-12-10T21:02:36;23.90;;;19.33;;
17504;SDS011;8870;50.950;11.762;2022-12-10T21:07:54;23.63;;;20.25;;
17504;SDS011;8870;50.950;11.762;2022-12-10T21:13:38;23.17;;;19.92;;
17504;SDS011;8870;50.950;11.762;2022-12-10T21:18:56;23.30;;;20.23;;
17504;SDS011;8870;50.950;11.762;2022-12-10T21:24:30;24.92;;;21.30;;
17504;SDS011;8870;50.950;11.762;2022-12-10T21:29:51;25.02;;;22.27;;
17504;SDS011;8870;50.950;11.762;2022-12-10T21:35:22;25.92;;;22.67;;
17504;SDS011;8870;50.950;11.762;2022-12-10T21:40:42;24.38;;;21.77;;
17504;SDS011;8870;50.950;11.762;2022-12-10T21:46:18;24.75;;;22.23;;
17504;SDS011;8870;50.950;11.762;2022-12-10T21:51:36;23.98;;;21.48;;
17504;SDS011;8870;50.950;11.762;2022-12-10T21:57:08;27.70;;;24.52;;
17504;SDS011;8870;50.950;11.762;2022-12-10T22:02:29;29.42;;;26.13;;
17504;SDS011;8870;50.950;11.762;2022-12-10T22:08:00;27.52;;;24.63;;
17504;SDS011;8870;50.950;11.762;2022-12-10T22:13:18;26.50;;;23.70;;
17504;SDS011;8870;50.950;11.762;2022-12-10T22:18:53;26.17;;;23.38;;
17504;SDS011;8870;50.950;11.762;2022-12-10T22:24:11;27.70;;;24.70;;
17504;SDS011;8870;50.950;11.762;2022-12-10T22:29:43;29.10;;;25.88;;
17504;SDS011;8870;50.950;11.762;2022-12-10T22:35:12;30.17;;;26.60;;
17504;SDS011;8870;50.950;11.762;2022-12-10T22:40:43;29.77;;;26.58;;
17504;SDS011;8870;50.950;11.762;2022-12-10T22:46:03;32.88;;;27.95;;
17504;SDS011;8870;50.950;11.762;2022-12-10T22:51:38;26.92;;;23.92;;
17504;SDS011;8870;50.950;11.762;2022-12-10T22:56:56;29.17;;;25.98;;
17504;SDS011;8870;50.950;11.762;2022-12-10T23:02:29;29.25;;;25.25;;
17504;SDS011;8870;50.950;11.762;2022-12-10T23:07:50;29.30;;;26.17;;
17504;SDS011;8870;50.950;11.762;2022-12-10T23:13:28;26.00;;;23.25;;
17504;SDS011;8870;50.950;11.762;2022-12-10T23:18:46;26.63;;;23.73;;
17504;SDS011;8870;50.950;11.762;2022-12-10T23:24:20;23.50;;;21.08;;
17504;SDS011;8870;50.950;11.762;2022-12-10T23:29:38;24.35;;;21.75;;
17504;SDS011;8870;50.950;11.762;2022-12-10T23:35:09;22.63;;;20.27;;
17504;SDS011;8870;50.950;11.762;2022-12-10T23:40:31;23.08;;;20.67;;
17504;SDS011;8870;50.950;11.762;2022-12-10T23:46:02;21.40;;;19.10;;
17504;SDS011;8870;50.950;11.762;2022-12-10T23:51:21;20.35;;;18.25;;
17504;SDS011;8870;50.950;11.762;2022-12-10T23:56:55;20.40;;;18.20;;
